sensor_id;sensor_type;location;lat;lon;timestamp;temperature;humidity
8945;DHT22;4507;40.232;29.132;2022-12-18T00:01:39;12.10;99.90
8945;DHT22;4507;40.232;29.132;2022-12-18T00:04:23;12.10;99.90
8945;DHT22;4507;40.232;29.132;2022-12-18T00:06:53;12.10;99.90
8945;DHT22;4507;40.232;29.132;2022-12-18T00:09:22;12.10;99.90
8945;DHT22;4507;40.232;29.132;2022-12-18T00:11:57;12.20;99.90
8945;DHT22;4507;40.232;29.132;2022-12-18T00:14:42;12.30;99.90
8945;DHT22;4507;40.232;29.132;2022-12-18T00:17:11;12.40;99.90
8945;DHT22;4507;40.232;29.132;2022-12-18T00:19:41;12.50;99.90
8945;DHT22;4507;40.232;29.132;2022-12-18T00:22:10;12.60;99.90
8945;DHT22;4507;40.232;29.132;2022-12-18T00:24:39;12.60;99.90
8945;DHT22;4507;40.232;29.132;2022-12-18T00:27:08;12.60;99.90
8945;DHT22;4507;40.232;29.132;2022-12-18T00:29:37;12.60;99.90
8945;DHT22;4507;40.232;29.132;2022-12-18T00:32:06;12.70;99.90
8945;DHT22;4507;40.232;29.132;2022-12-18T00:34:34;12.70;99.90
8945;DHT22;4507;40.232;29.132;2022-12-18T00:37:05;12.70;99.90
8945;DHT22;4507;40.232;29.132;2022-12-18T00:39:34;12.70;99.90
8945;DHT22;4507;40.232;29.132;2022-12-18T00:42:03;12.80;99.90
8945;DHT22;4507;40.232;29.132;2022-12-18T00:45:01;12.90;99.90
8945;DHT22;4507;40.232;29.132;2022-12-18T00:47:38;13.00;99.90
8945;DHT22;4507;40.232;29.132;2022-12-18T00:50:08;13.10;99.90
8945;DHT22;4507;40.232;29.132;2022-12-18T00:52:39;13.20;99.90
8945;DHT22;4507;40.232;29.132;2022-12-18T00:55:11;13.30;99.90
8945;DHT22;4507;40.232;29.132;2022-12-18T00:57:40;13.40;99.90
8945;DHT22;4507;40.232;29.132;2022-12-18T01:00:12;13.50;99.90
8945;DHT22;4507;40.232;29.132;2022-12-18T01:02:41;13.50;99.90
8945;DHT22;4507;40.232;29.132;2022-12-18T01:05:12;13.50;99.90
8945;DHT22;4507;40.232;29.132;2022-12-18T01:07:42;13.50;99.90
8945;DHT22;4507;40.232;29.132;2022-12-18T01:10:12;13.50;99.90
8945;DHT22;4507;40.232;29.132;2022-12-18T01:12:42;13.50;99.90
8945;DHT22;4507;40.232;29.132;2022-12-18T01:15:12;13.50;99.90
8945;DHT22;4507;40.232;29.132;2022-12-18T01:17:43;13.50;99.90
8945;DHT22;4507;40.232;29.132;2022-12-18T01:20:13;13.50;99.90
8945;DHT22;4507;40.232;29.132;2022-12-18T01:22:43;13.40;99.90
8945;DHT22;4507;40.232;29.132;2022-12-18T01:25:12;13.40;99.90
8945;DHT22;4507;40.232;29.132;2022-12-18T01:27:43;13.30;99.90
8945;DHT22;4507;40.232;29.132;2022-12-18T01:30:12;13.30;99.90
8945;DHT22;4507;40.232;29.132;2022-12-18T01:32:41;13.30;99.90
8945;DHT22;4507;40.232;29.132;2022-12-18T01:35:10;13.30;99.90
8945;DHT22;4507;40.232;29.132;2022-12-18T01:37:59;13.20;99.90
8945;DHT22;4507;40.232;29.132;2022-12-18T01:40:28;13.20;99.90
8945;DHT22;4507;40.232;29.132;2022-12-18T01:42:57;13.20;99.90
8945;DHT22;4507;40.232;29.132;2022-12-18T01:45:28;13.20;99.90
8945;DHT22;4507;40.232;29.132;2022-12-18T01:47:59;13.20;99.90
8945;DHT22;4507;40.232;29.132;2022-12-18T01:50:31;13.20;99.90
8945;DHT22;4507;40.232;29.132;2022-12-18T01:53:06;13.20;99.90
8945;DHT22;4507;40.232;29.132;2022-12-18T01:55:56;13.10;99.90
8945;DHT22;4507;40.232;29.132;2022-12-18T01:58:32;13.10;99.90
8945;DHT22;4507;40.232;29.132;2022-12-18T02:01:04;13.10;99.90
8945;DHT22;4507;40.232;29.132;2022-12-18T02:03:33;13.10;99.90
8945;DHT22;4507;40.232;29.132;2022-12-18T02:06:09;13.10;99.90
8945;DHT22;4507;40.232;29.132;2022-12-18T02:08:53;13.00;99.90
8945;DHT22;4507;40.232;29.132;2022-12-18T02:11:33;13.00;99.90
8945;DHT22;4507;40.232;29.132;2022-12-18T02:14:31;13.00;99.90
8945;DHT22;4507;40.232;29.132;2022-12-18T02:17:07;13.00;99.90
8945;DHT22;4507;40.232;29.132;2022-12-18T02:19:55;13.00;99.90
8945;DHT22;4507;40.232;29.132;2022-12-18T02:22:36;13.00;99.90
8945;DHT22;4507;40.232;29.132;2022-12-18T02:25:15;13.00;99.90
8945;DHT22;4507;40.232;29.132;2022-12-18T02:27:47;13.10;99.90
8945;DHT22;4507;40.232;29.132;2022-12-18T02:30:20;13.10;99.90
8945;DHT22;4507;40.232;29.132;2022-12-18T02:32:51;13.20;99.90
8945;DHT22;4507;40.232;29.132;2022-12-18T02:35:24;13.20;99.90
8945;DHT22;4507;40.232;29.132;2022-12-18T02:37:57;13.20;99.90
8945;DHT22;4507;40.232;29.132;2022-12-18T02:40:30;13.20;99.90
8945;DHT22;4507;40.232;29.132;2022-12-18T02:43:07;13.20;99.90
8945;DHT22;4507;40.232;29.132;2022-12-18T02:45:46;13.20;99.90
8945;DHT22;4507;40.232;29.132;2022-12-18T02:48:17;13.20;99.90
8945;DHT22;4507;40.232;29.132;2022-12-18T02:50:54;13.20;99.90
8945;DHT22;4507;40.232;29.132;2022-12-18T02:53:31;13.20;99.90
8945;DHT22;4507;40.232;29.132;2022-12-18T02:56:09;13.20;99.90
8945;DHT22;4507;40.232;29.132;2022-12-18T02:58:49;13.10;99.90
8945;DHT22;4507;40.232;29.132;2022-12-18T03:01:36;13.20;99.90
8945;DHT22;4507;40.232;29.132;2022-12-18T03:04:10;13.10;99.90
8945;DHT22;4507;40.232;29.132;2022-12-18T03:06:43;13.20;99.90
8945;DHT22;4507;40.232;29.132;2022-12-18T03:09:18;13.20;99.90
8945;DHT22;4507;40.232;29.132;2022-12-18T03:11:53;13.20;99.90
8945;DHT22;4507;40.232;29.132;2022-12-18T03:14:44;13.20;99.90
8945;DHT22;4507;40.232;29.132;2022-12-18T03:17:17;13.20;99.90
8945;DHT22;4507;40.232;29.132;2022-12-18T03:19:52;13.10;99.90
8945;DHT22;4507;40.232;29.132;2022-12-18T03:22:24;13.10;99.90
8945;DHT22;4507;40.232;29.132;2022-12-18T03:24:56;13.10;99.90
8945;DHT22;4507;40.232;29.132;2022-12-18T03:27:29;13.00;99.90
8945;DHT22;4507;40.232;29.132;2022-12-18T03:30:07;13.00;99.90
8945;DHT22;4507;40.232;29.132;2022-12-18T03:33:00;13.00;99.90
8945;DHT22;4507;40.232;29.132;2022-12-18T03:35:35;12.90;99.90
8945;DHT22;4507;40.232;29.132;2022-12-18T03:38:05;12.90;99.90
8945;DHT22;4507;40.232;29.132;2022-12-18T03:40:45;12.90;99.90
8945;DHT22;4507;40.232;29.132;2022-12-18T03:43:24;12.90;99.90
8945;DHT22;4507;40.232;29.132;2022-12-18T03:46:02;12.90;99.90
8945;DHT22;4507;40.232;29.132;2022-12-18T03:48:38;12.90;99.90
8945;DHT22;4507;40.232;29.132;2022-12-18T03:51:14;12.80;99.90
8945;DHT22;4507;40.232;29.132;2022-12-18T03:53:49;12.80;99.90
8945;DHT22;4507;40.232;29.132;2022-12-18T03:56:27;12.80;99.90
8945;DHT22;4507;40.232;29.132;2022-12-18T03:58:59;12.80;99.90
8945;DHT22;4507;40.232;29.132;2022-12-18T04:01:34;12.70;99.90
8945;DHT22;4507;40.232;29.132;2022-12-18T04:04:05;12.70;99.90
8945;DHT22;4507;40.232;29.132;2022-12-18T04:06:39;12.70;99.90
8945;DHT22;4507;40.232;29.132;2022-12-18T04:09:10;12.70;99.90
8945;DHT22;4507;40.232;29.132;2022-12-18T04:11:44;12.70;99.90
8945;DHT22;4507;40.232;29.132;2022-12-18T04:14:14;12.60;99.90
8945;DHT22;4507;40.232;29.132;2022-12-18T04:16:50;12.60;99.90
8945;DHT22;4507;40.232;29.132;2022-12-18T04:19:23;12.60;99.90
8945;DHT22;4507;40.232;29.132;2022-12-18T04:21:53;12.60;99.90
8945;DHT22;4507;40.232;29.132;2022-12-18T04:24:22;12.60;99.90
8945;DHT22;4507;40.232;29.132;2022-12-18T04:27:02;12.60;99.90
8945;DHT22;4507;40.232;29.132;2022-12-18T04:29:38;12.60;99.90
8945;DHT22;4507;40.232;29.132;2022-12-18T04:32:09;12.50;99.90
8945;DHT22;4507;40.232;29.132;2022-12-18T04:34:40;12.60;99.90
8945;DHT22;4507;40.232;29.132;2022-12-18T04:37:09;12.60;99.90
8945;DHT22;4507;40.232;29.132;2022-12-18T04:39:39;12.60;99.90
8945;DHT22;4507;40.232;29.132;2022-12-18T04:42:14;12.60;99.90
8945;DHT22;4507;40.232;29.132;2022-12-18T04:44:43;12.60;99.90
8945;DHT22;4507;40.232;29.132;2022-12-18T04:47:13;12.60;99.90
8945;DHT22;4507;40.232;29.132;2022-12-18T04:49:42;12.60;99.90
8945;DHT22;4507;40.232;29.132;2022-12-18T04:52:11;12.60;99.90
8945;DHT22;4507;40.232;29.132;2022-12-18T04:54:40;12.60;99.90
8945;DHT22;4507;40.232;29.132;2022-12-18T04:57:09;12.60;99.90
8945;DHT22;4507;40.232;29.132;2022-12-18T04:59:40;12.60;99.90
8945;DHT22;4507;40.232;29.132;2022-12-18T05:02:08;12.60;99.90
8945;DHT22;4507;40.232;29.132;2022-12-18T05:04:39;12.60;99.90
8945;DHT22;4507;40.232;29.132;2022-12-18T05:07:08;12.60;99.90
8945;DHT22;4507;40.232;29.132;2022-12-18T05:09:37;12.60;99.90
8945;DHT22;4507;40.232;29.132;2022-12-18T05:12:06;12.60;99.90
8945;DHT22;4507;40.232;29.132;2022-12-18T05:14:35;12.60;99.90
8945;DHT22;4507;40.232;29.132;2022-12-18T05:17:04;12.70;99.90
8945;DHT22;4507;40.232;29.132;2022-12-18T05:19:33;12.70;99.90
8945;DHT22;4507;40.232;29.132;2022-12-18T05:22:03;12.70;99.90
8945;DHT22;4507;40.232;29.132;2022-12-18T05:24:32;12.70;99.90
8945;DHT22;4507;40.232;29.132;2022-12-18T05:27:01;12.70;99.90
8945;DHT22;4507;40.232;29.132;2022-12-18T05:29:30;12.70;99.90
8945;DHT22;4507;40.232;29.132;2022-12-18T05:31:59;12.70;99.90
8945;DHT22;4507;40.232;29.132;2022-12-18T05:34:28;12.80;99.90
8945;DHT22;4507;40.232;29.132;2022-12-18T05:36:57;12.80;99.90
8945;DHT22;4507;40.232;29.132;2022-12-18T05:39:28;12.80;99.90
8945;DHT22;4507;40.232;29.132;2022-12-18T05:41:56;12.80;99.90
8945;DHT22;4507;40.232;29.132;2022-12-18T05:44:26;12.80;99.90
8945;DHT22;4507;40.232;29.132;2022-12-18T05:46:54;12.90;99.90
8945;DHT22;4507;40.232;29.132;2022-12-18T05:49:23;12.90;99.90
8945;DHT22;4507;40.232;29.132;2022-12-18T05:51:52;12.90;99.90
8945;DHT22;4507;40.232;29.132;2022-12-18T05:54:21;13.00;99.90
8945;DHT22;4507;40.232;29.132;2022-12-18T05:56:51;13.00;99.90
8945;DHT22;4507;40.232;29.132;2022-12-18T05:59:21;13.10;99.90
8945;DHT22;4507;40.232;29.132;2022-12-18T06:01:50;13.10;99.90
8945;DHT22;4507;40.232;29.132;2022-12-18T06:04:19;13.10;99.90
8945;DHT22;4507;40.232;29.132;2022-12-18T06:06:48;13.10;99.90
8945;DHT22;4507;40.232;29.132;2022-12-18T06:09:17;13.20;99.90
8945;DHT22;4507;40.232;29.132;2022-12-18T06:11:46;13.20;99.90
8945;DHT22;4507;40.232;29.132;2022-12-18T06:14:16;13.30;99.90
8945;DHT22;4507;40.232;29.132;2022-12-18T06:16:45;13.30;99.90
8945;DHT22;4507;40.232;29.132;2022-12-18T06:19:15;13.40;99.90
8945;DHT22;4507;40.232;29.132;2022-12-18T06:21:45;13.50;99.90
8945;DHT22;4507;40.232;29.132;2022-12-18T06:24:14;13.60;99.90
8945;DHT22;4507;40.232;29.132;2022-12-18T06:26:43;13.70;99.90
8945;DHT22;4507;40.232;29.132;2022-12-18T06:29:11;13.90;99.90
8945;DHT22;4507;40.232;29.132;2022-12-18T06:31:42;14.20;99.90
8945;DHT22;4507;40.232;29.132;2022-12-18T06:34:11;14.50;99.90
8945;DHT22;4507;40.232;29.132;2022-12-18T06:36:41;14.70;99.90
8945;DHT22;4507;40.232;29.132;2022-12-18T06:39:10;15.00;99.90
8945;DHT22;4507;40.232;29.132;2022-12-18T06:41:39;15.20;99.90
8945;DHT22;4507;40.232;29.132;2022-12-18T06:44:08;15.40;99.90
8945;DHT22;4507;40.232;29.132;2022-12-18T06:46:38;15.60;99.90
8945;DHT22;4507;40.232;29.132;2022-12-18T06:49:09;15.80;99.90
8945;DHT22;4507;40.232;29.132;2022-12-18T06:51:38;16.00;99.90
8945;DHT22;4507;40.232;29.132;2022-12-18T06:54:07;16.20;99.90
8945;DHT22;4507;40.232;29.132;2022-12-18T06:56:36;16.40;99.90
8945;DHT22;4507;40.232;29.132;2022-12-18T06:59:05;16.60;99.90
8945;DHT22;4507;40.232;29.132;2022-12-18T07:01:34;16.80;99.90
8945;DHT22;4507;40.232;29.132;2022-12-18T07:04:03;16.90;99.90
8945;DHT22;4507;40.232;29.132;2022-12-18T07:06:34;17.10;99.90
8945;DHT22;4507;40.232;29.132;2022-12-18T07:09:03;17.30;99.90
8945;DHT22;4507;40.232;29.132;2022-12-18T07:11:33;17.50;99.70
8945;DHT22;4507;40.232;29.132;2022-12-18T07:14:02;17.80;99.90
8945;DHT22;4507;40.232;29.132;2022-12-18T07:16:31;18.10;99.30
8945;DHT22;4507;40.232;29.132;2022-12-18T07:19:00;18.40;95.90
8945;DHT22;4507;40.232;29.132;2022-12-18T07:21:29;18.60;96.00
8945;DHT22;4507;40.232;29.132;2022-12-18T07:23:59;18.80;96.80
8945;DHT22;4507;40.232;29.132;2022-12-18T07:26:28;19.10;96.10
8945;DHT22;4507;40.232;29.132;2022-12-18T07:28:58;19.40;94.10
8945;DHT22;4507;40.232;29.132;2022-12-18T07:31:27;19.70;92.00
8945;DHT22;4507;40.232;29.132;2022-12-18T07:33:57;19.80;90.70
8945;DHT22;4507;40.232;29.132;2022-12-18T07:36:26;20.00;90.30
8945;DHT22;4507;40.232;29.132;2022-12-18T07:38:55;20.10;90.10
8945;DHT22;4507;40.232;29.132;2022-12-18T07:41:25;20.40;88.20
8945;DHT22;4507;40.232;29.132;2022-12-18T07:43:54;20.60;85.40
8945;DHT22;4507;40.232;29.132;2022-12-18T07:46:23;20.80;81.90
8945;DHT22;4507;40.232;29.132;2022-12-18T07:48:52;20.90;77.20
8945;DHT22;4507;40.232;29.132;2022-12-18T07:51:21;20.90;75.00
8945;DHT22;4507;40.232;29.132;2022-12-18T07:53:50;20.80;75.20
8945;DHT22;4507;40.232;29.132;2022-12-18T07:56:19;20.80;75.80
8945;DHT22;4507;40.232;29.132;2022-12-18T07:59:14;20.80;75.80
8945;DHT22;4507;40.232;29.132;2022-12-18T08:01:43;21.00;75.30
8945;DHT22;4507;40.232;29.132;2022-12-18T08:04:34;21.10;72.20
8945;DHT22;4507;40.232;29.132;2022-12-18T08:07:03;21.30;71.40
8945;DHT22;4507;40.232;29.132;2022-12-18T08:09:32;21.40;72.00
8945;DHT22;4507;40.232;29.132;2022-12-18T08:12:01;21.50;70.20
8945;DHT22;4507;40.232;29.132;2022-12-18T08:14:31;21.60;70.40
8945;DHT22;4507;40.232;29.132;2022-12-18T08:17:00;21.80;69.70
8945;DHT22;4507;40.232;29.132;2022-12-18T08:19:48;22.00;69.10
8945;DHT22;4507;40.232;29.132;2022-12-18T08:22:16;22.30;66.90
8945;DHT22;4507;40.232;29.132;2022-12-18T08:25:05;22.40;65.60
8945;DHT22;4507;40.232;29.132;2022-12-18T08:27:35;22.70;66.00
8945;DHT22;4507;40.232;29.132;2022-12-18T08:30:06;22.80;65.30
8945;DHT22;4507;40.232;29.132;2022-12-18T08:32:35;23.00;65.50
8945;DHT22;4507;40.232;29.132;2022-12-18T08:35:06;23.20;64.10
8945;DHT22;4507;40.232;29.132;2022-12-18T08:37:36;23.50;62.70
8945;DHT22;4507;40.232;29.132;2022-12-18T08:40:07;23.60;61.80
8945;DHT22;4507;40.232;29.132;2022-12-18T08:42:37;23.80;61.10
8945;DHT22;4507;40.232;29.132;2022-12-18T08:45:25;24.00;60.70
8945;DHT22;4507;40.232;29.132;2022-12-18T08:47:54;24.30;59.90
8945;DHT22;4507;40.232;29.132;2022-12-18T08:50:23;24.60;57.00
8945;DHT22;4507;40.232;29.132;2022-12-18T08:52:52;24.60;56.40
8945;DHT22;4507;40.232;29.132;2022-12-18T08:55:21;24.70;56.40
8945;DHT22;4507;40.232;29.132;2022-12-18T08:57:50;24.70;56.60
8945;DHT22;4507;40.232;29.132;2022-12-18T09:00:19;24.90;56.40
8945;DHT22;4507;40.232;29.132;2022-12-18T09:02:49;25.10;56.20
8945;DHT22;4507;40.232;29.132;2022-12-18T09:05:18;25.20;55.60
8945;DHT22;4507;40.232;29.132;2022-12-18T09:07:48;25.50;55.60
8945;DHT22;4507;40.232;29.132;2022-12-18T09:10:17;25.70;54.00
8945;DHT22;4507;40.232;29.132;2022-12-18T09:12:46;26.00;53.90
8945;DHT22;4507;40.232;29.132;2022-12-18T09:15:16;26.20;53.40
8945;DHT22;4507;40.232;29.132;2022-12-18T09:17:46;26.40;52.50
8945;DHT22;4507;40.232;29.132;2022-12-18T09:20:18;26.70;51.60
8945;DHT22;4507;40.232;29.132;2022-12-18T09:22:47;26.80;50.80
8945;DHT22;4507;40.232;29.132;2022-12-18T09:25:16;27.00;49.60
8945;DHT22;4507;40.232;29.132;2022-12-18T09:27:47;27.10;49.20
8945;DHT22;4507;40.232;29.132;2022-12-18T09:30:16;27.20;48.90
8945;DHT22;4507;40.232;29.132;2022-12-18T09:32:45;27.40;48.70
8945;DHT22;4507;40.232;29.132;2022-12-18T09:35:14;27.50;48.50
8945;DHT22;4507;40.232;29.132;2022-12-18T09:37:44;27.80;48.80
8945;DHT22;4507;40.232;29.132;2022-12-18T09:40:14;27.90;46.40
8945;DHT22;4507;40.232;29.132;2022-12-18T09:42:47;28.00;46.10
8945;DHT22;4507;40.232;29.132;2022-12-18T09:45:17;28.10;46.60
8945;DHT22;4507;40.232;29.132;2022-12-18T09:47:47;28.40;45.90
8945;DHT22;4507;40.232;29.132;2022-12-18T09:50:23;28.50;45.20
8945;DHT22;4507;40.232;29.132;2022-12-18T09:52:58;28.50;43.50
8945;DHT22;4507;40.232;29.132;2022-12-18T09:55:30;28.50;43.90
8945;DHT22;4507;40.232;29.132;2022-12-18T09:58:28;28.40;44.30
8945;DHT22;4507;40.232;29.132;2022-12-18T10:00:59;28.50;43.90
8945;DHT22;4507;40.232;29.132;2022-12-18T10:03:28;28.50;43.60
8945;DHT22;4507;40.232;29.132;2022-12-18T10:06:04;28.50;43.00
8945;DHT22;4507;40.232;29.132;2022-12-18T10:08:44;28.40;43.80
8945;DHT22;4507;40.232;29.132;2022-12-18T10:11:40;28.50;44.90
8945;DHT22;4507;40.232;29.132;2022-12-18T10:14:18;28.70;44.10
8945;DHT22;4507;40.232;29.132;2022-12-18T10:16:59;28.80;43.90
8945;DHT22;4507;40.232;29.132;2022-12-18T10:19:40;28.80;44.00
8945;DHT22;4507;40.232;29.132;2022-12-18T10:22:26;28.80;44.00
8945;DHT22;4507;40.232;29.132;2022-12-18T10:25:02;28.70;44.10
8945;DHT22;4507;40.232;29.132;2022-12-18T10:27:32;28.70;43.90
8945;DHT22;4507;40.232;29.132;2022-12-18T10:30:12;28.80;43.90
8945;DHT22;4507;40.232;29.132;2022-12-18T10:32:42;28.70;41.80
8945;DHT22;4507;40.232;29.132;2022-12-18T10:35:18;28.60;42.10
8945;DHT22;4507;40.232;29.132;2022-12-18T10:38:02;28.10;43.20
8945;DHT22;4507;40.232;29.132;2022-12-18T10:40:33;27.60;43.50
8945;DHT22;4507;40.232;29.132;2022-12-18T10:43:20;27.10;43.70
8945;DHT22;4507;40.232;29.132;2022-12-18T10:46:00;26.70;44.00
8945;DHT22;4507;40.232;29.132;2022-12-18T10:48:31;26.30;44.30
8945;DHT22;4507;40.232;29.132;2022-12-18T10:51:00;25.80;44.90
8945;DHT22;4507;40.232;29.132;2022-12-18T10:53:41;25.40;45.90
8945;DHT22;4507;40.232;29.132;2022-12-18T10:56:12;24.90;46.90
8945;DHT22;4507;40.232;29.132;2022-12-18T10:58:58;24.40;47.70
8945;DHT22;4507;40.232;29.132;2022-12-18T11:01:44;24.00;48.70
8945;DHT22;4507;40.232;29.132;2022-12-18T11:04:18;23.60;49.50
8945;DHT22;4507;40.232;29.132;2022-12-18T11:06:58;23.30;50.40
8945;DHT22;4507;40.232;29.132;2022-12-18T11:09:29;23.00;51.20
8945;DHT22;4507;40.232;29.132;2022-12-18T11:12:02;22.90;52.00
8945;DHT22;4507;40.232;29.132;2022-12-18T11:14:53;22.70;52.70
8945;DHT22;4507;40.232;29.132;2022-12-18T11:17:28;22.50;53.60
8945;DHT22;4507;40.232;29.132;2022-12-18T11:19:58;22.40;54.70
8945;DHT22;4507;40.232;29.132;2022-12-18T11:22:29;22.30;55.50
8945;DHT22;4507;40.232;29.132;2022-12-18T11:25:01;22.10;56.20
8945;DHT22;4507;40.232;29.132;2022-12-18T11:27:54;22.00;56.90
8945;DHT22;4507;40.232;29.132;2022-12-18T11:30:26;21.80;57.70
8945;DHT22;4507;40.232;29.132;2022-12-18T11:33:00;21.70;58.30
8945;DHT22;4507;40.232;29.132;2022-12-18T11:35:44;21.60;58.80
8945;DHT22;4507;40.232;29.132;2022-12-18T11:38:37;21.50;59.40
8945;DHT22;4507;40.232;29.132;2022-12-18T11:41:14;21.40;59.70
8945;DHT22;4507;40.232;29.132;2022-12-18T11:43:50;21.30;60.50
8945;DHT22;4507;40.232;29.132;2022-12-18T11:46:29;21.20;60.90
8945;DHT22;4507;40.232;29.132;2022-12-18T11:49:06;21.10;61.20
8945;DHT22;4507;40.232;29.132;2022-12-18T11:51:43;21.00;61.60
8945;DHT22;4507;40.232;29.132;2022-12-18T11:54:15;20.90;62.30
8945;DHT22;4507;40.232;29.132;2022-12-18T11:56:49;20.80;62.90
8945;DHT22;4507;40.232;29.132;2022-12-18T11:59:30;20.90;63.70
8945;DHT22;4507;40.232;29.132;2022-12-18T12:02:11;20.70;64.00
8945;DHT22;4507;40.232;29.132;2022-12-18T12:05:00;20.60;64.20
8945;DHT22;4507;40.232;29.132;2022-12-18T12:07:38;20.60;64.50
8945;DHT22;4507;40.232;29.132;2022-12-18T12:10:21;20.50;64.80
8945;DHT22;4507;40.232;29.132;2022-12-18T12:13:05;20.50;65.50
8945;DHT22;4507;40.232;29.132;2022-12-18T12:15:48;20.40;65.60
8945;DHT22;4507;40.232;29.132;2022-12-18T12:18:27;20.40;66.00
8945;DHT22;4507;40.232;29.132;2022-12-18T12:21:05;20.40;66.30
8945;DHT22;4507;40.232;29.132;2022-12-18T12:23:42;20.30;66.50
8945;DHT22;4507;40.232;29.132;2022-12-18T12:26:18;20.30;67.00
8945;DHT22;4507;40.232;29.132;2022-12-18T12:29:10;20.30;67.10
8945;DHT22;4507;40.232;29.132;2022-12-18T12:32:03;20.30;67.20
8945;DHT22;4507;40.232;29.132;2022-12-18T12:34:39;20.20;67.50
8945;DHT22;4507;40.232;29.132;2022-12-18T12:37:22;20.20;68.00
8945;DHT22;4507;40.232;29.132;2022-12-18T12:39:54;20.20;68.00
8945;DHT22;4507;40.232;29.132;2022-12-18T12:42:29;20.20;68.30
8945;DHT22;4507;40.232;29.132;2022-12-18T12:45:22;20.10;68.50
8945;DHT22;4507;40.232;29.132;2022-12-18T12:47:55;20.10;69.10
8945;DHT22;4507;40.232;29.132;2022-12-18T12:50:26;20.10;69.50
8945;DHT22;4507;40.232;29.132;2022-12-18T12:52:57;20.10;69.60
8945;DHT22;4507;40.232;29.132;2022-12-18T12:55:29;20.10;69.60
8945;DHT22;4507;40.232;29.132;2022-12-18T12:58:12;20.10;69.80
8945;DHT22;4507;40.232;29.132;2022-12-18T13:00:49;20.00;70.10
8945;DHT22;4507;40.232;29.132;2022-12-18T13:03:34;20.00;70.10
8945;DHT22;4507;40.232;29.132;2022-12-18T13:06:10;19.90;70.10
8945;DHT22;4507;40.232;29.132;2022-12-18T13:08:53;19.90;70.60
8945;DHT22;4507;40.232;29.132;2022-12-18T13:11:36;19.80;70.90
8945;DHT22;4507;40.232;29.132;2022-12-18T13:14:29;19.70;70.90
8945;DHT22;4507;40.232;29.132;2022-12-18T13:17:28;19.60;71.00
8945;DHT22;4507;40.232;29.132;2022-12-18T13:20:08;19.50;71.30
8945;DHT22;4507;40.232;29.132;2022-12-18T13:22:43;19.40;71.70
8945;DHT22;4507;40.232;29.132;2022-12-18T13:25:29;19.30;71.90
8945;DHT22;4507;40.232;29.132;2022-12-18T13:28:11;19.20;72.00
8945;DHT22;4507;40.232;29.132;2022-12-18T13:30:54;19.10;72.20
8945;DHT22;4507;40.232;29.132;2022-12-18T13:33:45;19.10;72.50
8945;DHT22;4507;40.232;29.132;2022-12-18T13:36:36;19.00;72.70
8945;DHT22;4507;40.232;29.132;2022-12-18T13:39:32;18.90;72.80
8945;DHT22;4507;40.232;29.132;2022-12-18T13:45:45;18.70;73.30
8945;DHT22;4507;40.232;29.132;2022-12-18T13:48:23;18.70;73.60
8945;DHT22;4507;40.232;29.132;2022-12-18T13:50:57;18.60;73.70
8945;DHT22;4507;40.232;29.132;2022-12-18T13:53:32;18.50;73.80
8945;DHT22;4507;40.232;29.132;2022-12-18T13:56:03;18.50;73.80
8945;DHT22;4507;40.232;29.132;2022-12-18T13:59:20;18.30;73.70
8945;DHT22;4507;40.232;29.132;2022-12-18T14:01:54;18.20;73.80
8945;DHT22;4507;40.232;29.132;2022-12-18T14:04:26;18.10;74.00
8945;DHT22;4507;40.232;29.132;2022-12-18T14:06:58;18.00;74.20
8945;DHT22;4507;40.232;29.132;2022-12-18T14:09:35;17.90;74.40
8945;DHT22;4507;40.232;29.132;2022-12-18T14:12:11;17.80;74.60
8945;DHT22;4507;40.232;29.132;2022-12-18T14:15:00;17.70;74.80
8945;DHT22;4507;40.232;29.132;2022-12-18T14:17:31;17.60;75.10
8945;DHT22;4507;40.232;29.132;2022-12-18T14:20:01;17.50;75.40
8945;DHT22;4507;40.232;29.132;2022-12-18T14:22:31;17.40;75.70
8945;DHT22;4507;40.232;29.132;2022-12-18T14:25:15;17.30;76.00
8945;DHT22;4507;40.232;29.132;2022-12-18T14:27:47;17.10;76.30
8945;DHT22;4507;40.232;29.132;2022-12-18T14:30:28;17.10;76.60
8945;DHT22;4507;40.232;29.132;2022-12-18T14:33:02;16.90;76.90
8945;DHT22;4507;40.232;29.132;2022-12-18T14:35:32;16.90;78.00
8945;DHT22;4507;40.232;29.132;2022-12-18T14:38:21;16.80;77.80
8945;DHT22;4507;40.232;29.132;2022-12-18T14:40:57;16.70;78.90
8945;DHT22;4507;40.232;29.132;2022-12-18T14:43:27;16.60;78.50
8945;DHT22;4507;40.232;29.132;2022-12-18T14:46:00;16.60;79.00
8945;DHT22;4507;40.232;29.132;2022-12-18T14:48:38;16.70;79.60
8945;DHT22;4507;40.232;29.132;2022-12-18T14:51:16;16.40;79.80
8945;DHT22;4507;40.232;29.132;2022-12-18T14:53:47;16.40;80.40
8945;DHT22;4507;40.232;29.132;2022-12-18T14:56:24;16.50;80.90
8945;DHT22;4507;40.232;29.132;2022-12-18T14:58:56;16.30;81.30
8945;DHT22;4507;40.232;29.132;2022-12-18T15:01:29;16.20;81.60
8945;DHT22;4507;40.232;29.132;2022-12-18T15:04:00;16.20;81.90
8945;DHT22;4507;40.232;29.132;2022-12-18T15:06:33;16.10;82.10
8945;DHT22;4507;40.232;29.132;2022-12-18T15:09:18;16.10;82.50
8945;DHT22;4507;40.232;29.132;2022-12-18T15:11:56;16.10;82.90
8945;DHT22;4507;40.232;29.132;2022-12-18T15:14:34;16.00;83.30
8945;DHT22;4507;40.232;29.132;2022-12-18T15:17:06;16.00;83.70
8945;DHT22;4507;40.232;29.132;2022-12-18T15:19:43;15.90;84.00
8945;DHT22;4507;40.232;29.132;2022-12-18T15:22:22;15.90;84.40
8945;DHT22;4507;40.232;29.132;2022-12-18T15:24:53;15.80;84.60
8945;DHT22;4507;40.232;29.132;2022-12-18T15:27:27;15.80;85.10
8945;DHT22;4507;40.232;29.132;2022-12-18T15:32:45;15.70;85.90
8945;DHT22;4507;40.232;29.132;2022-12-18T15:35:17;15.70;86.40
8945;DHT22;4507;40.232;29.132;2022-12-18T15:37:47;15.70;86.70
8945;DHT22;4507;40.232;29.132;2022-12-18T15:40:18;15.70;87.10
8945;DHT22;4507;40.232;29.132;2022-12-18T15:42:52;15.60;87.40
8945;DHT22;4507;40.232;29.132;2022-12-18T15:45:39;15.60;87.80
8945;DHT22;4507;40.232;29.132;2022-12-18T15:48:19;15.60;88.80
8945;DHT22;4507;40.232;29.132;2022-12-18T15:50:50;15.50;88.50
8945;DHT22;4507;40.232;29.132;2022-12-18T15:53:19;15.50;88.90
8945;DHT22;4507;40.232;29.132;2022-12-18T15:55:48;15.50;89.20
8945;DHT22;4507;40.232;29.132;2022-12-18T15:58:36;15.50;89.50
8945;DHT22;4507;40.232;29.132;2022-12-18T16:01:06;15.40;89.80
8945;DHT22;4507;40.232;29.132;2022-12-18T16:03:36;15.40;90.00
8945;DHT22;4507;40.232;29.132;2022-12-18T16:06:07;15.30;90.20
8945;DHT22;4507;40.232;29.132;2022-12-18T16:08:36;15.30;90.40
8945;DHT22;4507;40.232;29.132;2022-12-18T16:11:14;15.30;90.50
8945;DHT22;4507;40.232;29.132;2022-12-18T16:14:16;15.30;90.70
8945;DHT22;4507;40.232;29.132;2022-12-18T16:16:45;15.20;90.80
8945;DHT22;4507;40.232;29.132;2022-12-18T16:19:15;15.20;91.00
8945;DHT22;4507;40.232;29.132;2022-12-18T16:21:46;15.20;91.10
8945;DHT22;4507;40.232;29.132;2022-12-18T16:24:25;15.20;91.20
8945;DHT22;4507;40.232;29.132;2022-12-18T16:26:57;15.20;91.40
8945;DHT22;4507;40.232;29.132;2022-12-18T16:29:28;15.20;91.40
8945;DHT22;4507;40.232;29.132;2022-12-18T16:31:59;15.20;91.60
8945;DHT22;4507;40.232;29.132;2022-12-18T16:34:34;15.20;91.70
8945;DHT22;4507;40.232;29.132;2022-12-18T16:37:05;15.10;91.80